Decoded Metar for LFCK (CASTRES in FRANCE) (IATA:DCM) | Meteo·Mobile Aviation Weather
aviador You're here:

LFCK Decoded Metar

CASTRES in FRANCE
Report Time2018-08-21 07:30:00
UTC Time2018-08-21 07:51:35
Flight Rules vfr VFR
WindVRB at 02 kt
Visibility9999 m
Phenomena:N/A
Clouds:N/A
Expected CloudBase > 2,400 ft AGL from Temp-Dew spread
CeilingNone
Temp21°C
Dew Point15°C (69% RH)
QNH1020 hPa
Raw Report
METAR LFCK 210730Z AUTO VRB02KT CAVOK 21/15 Q1020 NOSIG=

Extra information for LFCK:More info

Metar Taf Metar & Taf Last 4 Metars F.Rules Stats Wind Profile Meteogram Temp Stats Airport Information Weather charts Add Link Nearby VenuesMetar ALERT Operation Metar Decoded Social comments